sensor_id;sensor_type;location;lat;lon;timestamp;P1;durP1;ratioP1;P2;durP2;ratioP2
68866;SDS011;56451;44.804;20.476;2023-06-14T00:00:59;5.20;;;2.55;;
68866;SDS011;56451;44.804;20.476;2023-06-14T00:03:25;4.30;;;3.10;;
68866;SDS011;56451;44.804;20.476;2023-06-14T00:05:51;4.03;;;2.93;;
68866;SDS011;56451;44.804;20.476;2023-06-14T00:08:17;6.38;;;3.40;;
68866;SDS011;56451;44.804;20.476;2023-06-14T00:10:44;5.90;;;3.20;;
68866;SDS011;56451;44.804;20.476;2023-06-14T00:13:10;4.43;;;2.77;;
68866;SDS011;56451;44.804;20.476;2023-06-14T00:15:37;8.45;;;2.90;;
68866;SDS011;56451;44.804;20.476;2023-06-14T00:18:04;3.67;;;2.55;;
68866;SDS011;56451;44.804;20.476;2023-06-14T00:20:31;7.30;;;3.20;;
68866;SDS011;56451;44.804;20.476;2023-06-14T00:22:58;5.07;;;3.00;;
68866;SDS011;56451;44.804;20.476;2023-06-14T00:25:25;6.73;;;3.03;;
68866;SDS011;56451;44.804;20.476;2023-06-14T00:27:52;6.80;;;3.80;;
68866;SDS011;56451;44.804;20.476;2023-06-14T00:30:19;7.30;;;4.40;;
68866;SDS011;56451;44.804;20.476;2023-06-14T00:32:45;7.43;;;3.90;;
68866;SDS011;56451;44.804;20.476;2023-06-14T00:35:12;6.75;;;4.30;;
68866;SDS011;56451;44.804;20.476;2023-06-14T00:37:38;7.80;;;4.37;;
68866;SDS011;56451;44.804;20.476;2023-06-14T00:40:05;6.90;;;4.68;;
68866;SDS011;56451;44.804;20.476;2023-06-14T00:42:32;9.55;;;4.72;;
68866;SDS011;56451;44.804;20.476;2023-06-14T00:44:59;6.25;;;4.30;;
68866;SDS011;56451;44.804;20.476;2023-06-14T00:47:25;7.53;;;4.60;;
68866;SDS011;56451;44.804;20.476;2023-06-14T00:49:53;5.60;;;4.20;;
68866;SDS011;56451;44.804;20.476;2023-06-14T00:52:20;8.50;;;4.65;;
68866;SDS011;56451;44.804;20.476;2023-06-14T00:54:46;8.07;;;4.70;;
68866;SDS011;56451;44.804;20.476;2023-06-14T00:57:12;8.85;;;4.45;;
68866;SDS011;56451;44.804;20.476;2023-06-14T01:02:13;6.87;;;4.10;;
68866;SDS011;56451;44.804;20.476;2023-06-14T01:04:45;6.97;;;3.92;;
68866;SDS011;56451;44.804;20.476;2023-06-14T01:13:35;5.07;;;3.60;;
68866;SDS011;56451;44.804;20.476;2023-06-14T01:16:03;4.17;;;3.33;;
68866;SDS011;56451;44.804;20.476;2023-06-14T01:18:31;4.80;;;3.47;;
68866;SDS011;56451;44.804;20.476;2023-06-14T01:21:01;6.40;;;3.75;;
68866;SDS011;56451;44.804;20.476;2023-06-14T01:23:31;7.95;;;4.30;;
68866;SDS011;56451;44.804;20.476;2023-06-14T01:25:58;7.60;;;4.18;;
68866;SDS011;56451;44.804;20.476;2023-06-14T01:28:25;8.77;;;3.80;;
68866;SDS011;56451;44.804;20.476;2023-06-14T01:30:58;7.07;;;4.32;;
68866;SDS011;56451;44.804;20.476;2023-06-14T01:33:29;6.85;;;4.07;;
68866;SDS011;56451;44.804;20.476;2023-06-14T01:35:58;7.05;;;4.10;;
68866;SDS011;56451;44.804;20.476;2023-06-14T01:38:26;8.18;;;4.30;;
68866;SDS011;56451;44.804;20.476;2023-06-14T01:40:54;15.47;;;4.43;;
68866;SDS011;56451;44.804;20.476;2023-06-14T01:43:25;6.78;;;3.97;;
68866;SDS011;56451;44.804;20.476;2023-06-14T01:45:52;7.68;;;4.05;;
68866;SDS011;56451;44.804;20.476;2023-06-14T01:48:21;12.85;;;4.60;;
68866;SDS011;56451;44.804;20.476;2023-06-14T01:50:51;8.27;;;4.18;;
68866;SDS011;56451;44.804;20.476;2023-06-14T01:53:19;7.90;;;4.20;;
68866;SDS011;56451;44.804;20.476;2023-06-14T01:55:46;5.78;;;4.10;;
68866;SDS011;56451;44.804;20.476;2023-06-14T01:58:14;5.55;;;4.00;;
68866;SDS011;56451;44.804;20.476;2023-06-14T02:00:43;7.45;;;4.50;;
68866;SDS011;56451;44.804;20.476;2023-06-14T02:03:11;8.02;;;4.40;;
68866;SDS011;56451;44.804;20.476;2023-06-14T02:05:38;9.73;;;4.33;;
68866;SDS011;56451;44.804;20.476;2023-06-14T02:08:05;5.88;;;3.90;;
68866;SDS011;56451;44.804;20.476;2023-06-14T02:10:32;5.90;;;3.92;;
68866;SDS011;56451;44.804;20.476;2023-06-14T02:12:59;7.95;;;4.50;;
68866;SDS011;56451;44.804;20.476;2023-06-14T02:15:25;9.55;;;4.53;;
68866;SDS011;56451;44.804;20.476;2023-06-14T02:18:00;7.13;;;4.00;;
68866;SDS011;56451;44.804;20.476;2023-06-14T02:20:27;8.80;;;4.20;;
68866;SDS011;56451;44.804;20.476;2023-06-14T02:22:53;6.80;;;4.10;;
68866;SDS011;56451;44.804;20.476;2023-06-14T02:25:19;6.07;;;4.07;;
68866;SDS011;56451;44.804;20.476;2023-06-14T02:27:45;8.10;;;4.57;;
68866;SDS011;56451;44.804;20.476;2023-06-14T02:30:12;5.50;;;3.87;;
68866;SDS011;56451;44.804;20.476;2023-06-14T02:32:38;9.15;;;4.57;;
68866;SDS011;56451;44.804;20.476;2023-06-14T02:35:06;10.05;;;4.28;;
68866;SDS011;56451;44.804;20.476;2023-06-14T02:37:34;11.20;;;5.15;;
68866;SDS011;56451;44.804;20.476;2023-06-14T02:40:00;7.90;;;4.20;;
68866;SDS011;56451;44.804;20.476;2023-06-14T02:42:26;6.00;;;3.97;;
68866;SDS011;56451;44.804;20.476;2023-06-14T02:44:52;6.63;;;3.97;;
68866;SDS011;56451;44.804;20.476;2023-06-14T02:47:18;7.80;;;4.20;;
68866;SDS011;56451;44.804;20.476;2023-06-14T02:49:44;8.43;;;4.43;;
68866;SDS011;56451;44.804;20.476;2023-06-14T02:52:13;7.05;;;4.20;;
68866;SDS011;56451;44.804;20.476;2023-06-14T02:54:39;7.47;;;4.22;;
68866;SDS011;56451;44.804;20.476;2023-06-14T02:57:06;5.63;;;3.78;;
68866;SDS011;56451;44.804;20.476;2023-06-14T02:59:36;5.20;;;4.07;;
68866;SDS011;56451;44.804;20.476;2023-06-14T03:02:03;5.85;;;4.00;;
68866;SDS011;56451;44.804;20.476;2023-06-14T03:04:31;9.00;;;4.68;;
68866;SDS011;56451;44.804;20.476;2023-06-14T03:07:06;5.88;;;3.90;;
68866;SDS011;56451;44.804;20.476;2023-06-14T03:09:36;7.38;;;4.15;;
68866;SDS011;56451;44.804;20.476;2023-06-14T03:12:03;7.07;;;4.20;;
68866;SDS011;56451;44.804;20.476;2023-06-14T03:14:31;6.45;;;4.10;;
68866;SDS011;56451;44.804;20.476;2023-06-14T03:16:58;9.02;;;5.05;;
68866;SDS011;56451;44.804;20.476;2023-06-14T03:19:24;7.38;;;3.97;;
68866;SDS011;56451;44.804;20.476;2023-06-14T03:21:53;7.32;;;3.83;;
68866;SDS011;56451;44.804;20.476;2023-06-14T03:24:23;7.87;;;4.47;;
68866;SDS011;56451;44.804;20.476;2023-06-14T03:26:49;7.97;;;4.63;;
68866;SDS011;56451;44.804;20.476;2023-06-14T03:29:15;8.85;;;4.72;;
68866;SDS011;56451;44.804;20.476;2023-06-14T03:31:56;8.43;;;4.45;;
68866;SDS011;56451;44.804;20.476;2023-06-14T03:34:23;7.30;;;4.18;;
68866;SDS011;56451;44.804;20.476;2023-06-14T03:36:49;9.93;;;4.33;;
68866;SDS011;56451;44.804;20.476;2023-06-14T03:39:15;6.55;;;4.22;;
68866;SDS011;56451;44.804;20.476;2023-06-14T03:41:42;7.65;;;4.18;;
68866;SDS011;56451;44.804;20.476;2023-06-14T03:44:07;6.60;;;4.37;;
68866;SDS011;56451;44.804;20.476;2023-06-14T03:46:34;9.90;;;4.13;;
68866;SDS011;56451;44.804;20.476;2023-06-14T03:49:00;6.43;;;4.32;;
68866;SDS011;56451;44.804;20.476;2023-06-14T03:51:26;7.90;;;4.60;;
68866;SDS011;56451;44.804;20.476;2023-06-14T03:53:52;8.18;;;4.20;;
68866;SDS011;56451;44.804;20.476;2023-06-14T03:56:18;6.63;;;4.33;;
68866;SDS011;56451;44.804;20.476;2023-06-14T03:58:44;7.13;;;3.88;;
68866;SDS011;56451;44.804;20.476;2023-06-14T04:01:10;6.35;;;4.07;;
68866;SDS011;56451;44.804;20.476;2023-06-14T04:03:38;7.40;;;4.13;;
68866;SDS011;56451;44.804;20.476;2023-06-14T04:06:06;9.68;;;4.13;;
68866;SDS011;56451;44.804;20.476;2023-06-14T04:08:33;6.25;;;3.92;;
68866;SDS011;56451;44.804;20.476;2023-06-14T04:11:00;5.50;;;3.60;;
68866;SDS011;56451;44.804;20.476;2023-06-14T04:13:26;7.63;;;3.92;;
68866;SDS011;56451;44.804;20.476;2023-06-14T04:15:52;7.07;;;3.63;;
68866;SDS011;56451;44.804;20.476;2023-06-14T04:18:24;4.93;;;4.28;;
68866;SDS011;56451;44.804;20.476;2023-06-14T04:20:51;6.45;;;3.67;;
68866;SDS011;56451;44.804;20.476;2023-06-14T04:23:19;6.60;;;4.00;;
68866;SDS011;56451;44.804;20.476;2023-06-14T04:25:45;7.80;;;3.72;;
68866;SDS011;56451;44.804;20.476;2023-06-14T04:28:13;6.10;;;4.10;;
68866;SDS011;56451;44.804;20.476;2023-06-14T04:30:41;8.05;;;3.85;;
68866;SDS011;56451;44.804;20.476;2023-06-14T04:33:08;4.88;;;3.58;;
68866;SDS011;56451;44.804;20.476;2023-06-14T04:35:36;8.02;;;4.03;;
68866;SDS011;56451;44.804;20.476;2023-06-14T04:38:04;6.68;;;3.80;;
68866;SDS011;56451;44.804;20.476;2023-06-14T04:40:32;5.13;;;3.17;;
68866;SDS011;56451;44.804;20.476;2023-06-14T04:42:59;6.32;;;3.10;;
68866;SDS011;56451;44.804;20.476;2023-06-14T04:45:25;5.90;;;3.13;;
68866;SDS011;56451;44.804;20.476;2023-06-14T04:47:58;4.63;;;3.13;;
68866;SDS011;56451;44.804;20.476;2023-06-14T04:50:27;4.50;;;2.97;;
68866;SDS011;56451;44.804;20.476;2023-06-14T04:52:55;6.67;;;3.13;;
68866;SDS011;56451;44.804;20.476;2023-06-14T04:55:22;4.30;;;3.00;;
68866;SDS011;56451;44.804;20.476;2023-06-14T04:57:48;5.90;;;2.90;;
68866;SDS011;56451;44.804;20.476;2023-06-14T05:00:14;6.45;;;3.08;;
68866;SDS011;56451;44.804;20.476;2023-06-14T05:02:41;5.55;;;2.72;;
68866;SDS011;56451;44.804;20.476;2023-06-14T05:05:06;3.07;;;2.53;;
68866;SDS011;56451;44.804;20.476;2023-06-14T05:07:33;5.22;;;2.90;;
68866;SDS011;56451;44.804;20.476;2023-06-14T05:10:01;5.45;;;2.88;;
68866;SDS011;56451;44.804;20.476;2023-06-14T05:12:28;5.00;;;3.10;;
68866;SDS011;56451;44.804;20.476;2023-06-14T05:14:54;6.47;;;2.90;;
68866;SDS011;56451;44.804;20.476;2023-06-14T05:17:22;4.60;;;2.92;;
68866;SDS011;56451;44.804;20.476;2023-06-14T05:19:48;3.85;;;2.70;;
68866;SDS011;56451;44.804;20.476;2023-06-14T05:22:14;3.95;;;2.55;;
68866;SDS011;56451;44.804;20.476;2023-06-14T05:24:40;5.53;;;2.90;;
68866;SDS011;56451;44.804;20.476;2023-06-14T05:27:07;4.15;;;3.00;;
68866;SDS011;56451;44.804;20.476;2023-06-14T05:29:33;6.05;;;2.85;;
68866;SDS011;56451;44.804;20.476;2023-06-14T05:31:59;4.72;;;3.20;;
68866;SDS011;56451;44.804;20.476;2023-06-14T05:34:25;6.50;;;3.80;;
68866;SDS011;56451;44.804;20.476;2023-06-14T05:36:51;4.68;;;3.20;;
68866;SDS011;56451;44.804;20.476;2023-06-14T05:39:17;6.32;;;3.10;;
68866;SDS011;56451;44.804;20.476;2023-06-14T05:41:43;5.73;;;3.10;;
68866;SDS011;56451;44.804;20.476;2023-06-14T05:44:09;5.82;;;3.22;;
68866;SDS011;56451;44.804;20.476;2023-06-14T05:46:35;5.25;;;3.30;;
68866;SDS011;56451;44.804;20.476;2023-06-14T05:49:01;6.55;;;3.78;;
68866;SDS011;56451;44.804;20.476;2023-06-14T05:51:27;7.30;;;3.30;;
68866;SDS011;56451;44.804;20.476;2023-06-14T05:53:53;5.50;;;3.50;;
68866;SDS011;56451;44.804;20.476;2023-06-14T05:56:19;7.43;;;3.75;;
68866;SDS011;56451;44.804;20.476;2023-06-14T05:58:46;8.55;;;3.85;;
68866;SDS011;56451;44.804;20.476;2023-06-14T06:01:12;10.48;;;4.07;;
68866;SDS011;56451;44.804;20.476;2023-06-14T06:03:39;9.27;;;4.20;;
68866;SDS011;56451;44.804;20.476;2023-06-14T06:06:05;9.87;;;4.57;;
68866;SDS011;56451;44.804;20.476;2023-06-14T06:08:31;10.90;;;5.03;;
68866;SDS011;56451;44.804;20.476;2023-06-14T06:10:58;7.78;;;4.15;;
68866;SDS011;56451;44.804;20.476;2023-06-14T06:13:23;7.67;;;4.47;;
68866;SDS011;56451;44.804;20.476;2023-06-14T06:15:49;23.23;;;4.57;;
68866;SDS011;56451;44.804;20.476;2023-06-14T06:18:16;8.35;;;3.67;;
68866;SDS011;56451;44.804;20.476;2023-06-14T06:20:42;6.22;;;4.05;;
68866;SDS011;56451;44.804;20.476;2023-06-14T06:23:09;6.63;;;3.80;;
68866;SDS011;56451;44.804;20.476;2023-06-14T06:25:35;5.78;;;3.97;;
68866;SDS011;56451;44.804;20.476;2023-06-14T06:28:01;6.40;;;3.83;;
68866;SDS011;56451;44.804;20.476;2023-06-14T06:30:27;13.73;;;4.82;;
68866;SDS011;56451;44.804;20.476;2023-06-14T06:32:53;7.38;;;4.43;;
68866;SDS011;56451;44.804;20.476;2023-06-14T06:35:21;6.77;;;4.40;;
68866;SDS011;56451;44.804;20.476;2023-06-14T06:37:46;7.30;;;4.88;;
68866;SDS011;56451;44.804;20.476;2023-06-14T06:40:12;8.45;;;4.63;;
68866;SDS011;56451;44.804;20.476;2023-06-14T06:42:39;7.07;;;3.93;;
68866;SDS011;56451;44.804;20.476;2023-06-14T06:45:05;13.73;;;4.72;;
68866;SDS011;56451;44.804;20.476;2023-06-14T06:47:32;10.25;;;4.57;;
68866;SDS011;56451;44.804;20.476;2023-06-14T06:49:58;6.53;;;3.40;;
68866;SDS011;56451;44.804;20.476;2023-06-14T06:52:24;8.53;;;3.30;;
68866;SDS011;56451;44.804;20.476;2023-06-14T06:54:50;7.95;;;3.35;;
68866;SDS011;56451;44.804;20.476;2023-06-14T06:57:20;9.18;;;3.25;;
68866;SDS011;56451;44.804;20.476;2023-06-14T06:59:48;5.80;;;3.28;;
68866;SDS011;56451;44.804;20.476;2023-06-14T07:02:15;5.53;;;3.40;;
68866;SDS011;56451;44.804;20.476;2023-06-14T07:04:42;8.50;;;3.03;;
68866;SDS011;56451;44.804;20.476;2023-06-14T07:07:08;5.18;;;3.08;;
68866;SDS011;56451;44.804;20.476;2023-06-14T07:09:35;6.32;;;3.50;;
68866;SDS011;56451;44.804;20.476;2023-06-14T07:12:01;6.00;;;3.35;;
68866;SDS011;56451;44.804;20.476;2023-06-14T07:14:27;6.53;;;3.45;;
68866;SDS011;56451;44.804;20.476;2023-06-14T07:16:55;5.87;;;3.23;;
68866;SDS011;56451;44.804;20.476;2023-06-14T07:19:21;5.03;;;3.25;;
68866;SDS011;56451;44.804;20.476;2023-06-14T07:21:47;7.68;;;3.78;;
68866;SDS011;56451;44.804;20.476;2023-06-14T07:24:13;9.13;;;3.80;;
68866;SDS011;56451;44.804;20.476;2023-06-14T07:26:39;9.33;;;3.50;;
68866;SDS011;56451;44.804;20.476;2023-06-14T07:29:05;6.43;;;3.35;;
68866;SDS011;56451;44.804;20.476;2023-06-14T07:31:31;10.23;;;3.55;;
68866;SDS011;56451;44.804;20.476;2023-06-14T07:33:57;5.10;;;3.40;;
68866;SDS011;56451;44.804;20.476;2023-06-14T07:36:23;7.30;;;3.22;;
68866;SDS011;56451;44.804;20.476;2023-06-14T07:38:49;6.93;;;3.40;;
68866;SDS011;56451;44.804;20.476;2023-06-14T07:41:15;4.43;;;3.20;;
68866;SDS011;56451;44.804;20.476;2023-06-14T07:43:41;9.93;;;3.58;;
68866;SDS011;56451;44.804;20.476;2023-06-14T07:46:07;6.65;;;3.72;;
68866;SDS011;56451;44.804;20.476;2023-06-14T07:48:34;6.50;;;3.53;;
68866;SDS011;56451;44.804;20.476;2023-06-14T07:51:00;4.70;;;3.40;;
68866;SDS011;56451;44.804;20.476;2023-06-14T07:53:26;7.82;;;3.40;;
68866;SDS011;56451;44.804;20.476;2023-06-14T07:55:52;3.97;;;2.97;;
68866;SDS011;56451;44.804;20.476;2023-06-14T07:58:18;5.30;;;3.58;;
68866;SDS011;56451;44.804;20.476;2023-06-14T08:00:44;10.57;;;3.60;;
68866;SDS011;56451;44.804;20.476;2023-06-14T08:03:11;9.48;;;4.15;;
68866;SDS011;56451;44.804;20.476;2023-06-14T08:05:37;6.07;;;3.38;;
68866;SDS011;56451;44.804;20.476;2023-06-14T08:08:03;5.93;;;3.67;;
68866;SDS011;56451;44.804;20.476;2023-06-14T08:10:30;9.18;;;4.57;;
68866;SDS011;56451;44.804;20.476;2023-06-14T08:12:56;10.10;;;4.03;;
68866;SDS011;56451;44.804;20.476;2023-06-14T08:15:22;6.65;;;3.97;;
68866;SDS011;56451;44.804;20.476;2023-06-14T08:17:47;6.63;;;3.80;;
68866;SDS011;56451;44.804;20.476;2023-06-14T08:20:13;7.40;;;3.80;;
68866;SDS011;56451;44.804;20.476;2023-06-14T08:22:42;6.72;;;3.78;;
68866;SDS011;56451;44.804;20.476;2023-06-14T08:25:08;8.18;;;4.20;;
68866;SDS011;56451;44.804;20.476;2023-06-14T08:27:34;9.02;;;3.85;;
68866;SDS011;56451;44.804;20.476;2023-06-14T08:30:01;9.07;;;4.00;;
68866;SDS011;56451;44.804;20.476;2023-06-14T08:32:29;5.50;;;3.40;;
68866;SDS011;56451;44.804;20.476;2023-06-14T08:34:55;7.53;;;3.92;;
68866;SDS011;56451;44.804;20.476;2023-06-14T08:37:21;6.78;;;3.70;;
68866;SDS011;56451;44.804;20.476;2023-06-14T08:39:48;8.07;;;4.13;;
68866;SDS011;56451;44.804;20.476;2023-06-14T08:42:14;5.80;;;3.50;;
68866;SDS011;56451;44.804;20.476;2023-06-14T08:44:41;5.28;;;4.05;;
68866;SDS011;56451;44.804;20.476;2023-06-14T08:47:07;5.80;;;3.88;;
68866;SDS011;56451;44.804;20.476;2023-06-14T08:49:36;5.60;;;3.80;;
68866;SDS011;56451;44.804;20.476;2023-06-14T08:52:03;6.32;;;3.50;;
68866;SDS011;56451;44.804;20.476;2023-06-14T08:54:32;4.47;;;3.33;;
68866;SDS011;56451;44.804;20.476;2023-06-14T08:57:02;5.25;;;3.30;;
68866;SDS011;56451;44.804;20.476;2023-06-14T08:59:32;7.07;;;3.17;;
68866;SDS011;56451;44.804;20.476;2023-06-14T09:02:05;5.75;;;3.38;;
68866;SDS011;56451;44.804;20.476;2023-06-14T09:04:32;4.40;;;2.67;;
68866;SDS011;56451;44.804;20.476;2023-06-14T09:06:59;7.10;;;2.97;;
68866;SDS011;56451;44.804;20.476;2023-06-14T09:09:26;5.07;;;2.83;;
68866;SDS011;56451;44.804;20.476;2023-06-14T09:11:52;4.82;;;2.60;;
68866;SDS011;56451;44.804;20.476;2023-06-14T09:14:18;6.13;;;2.67;;
68866;SDS011;56451;44.804;20.476;2023-06-14T09:16:44;4.70;;;2.70;;
68866;SDS011;56451;44.804;20.476;2023-06-14T09:19:31;3.25;;;2.78;;
68866;SDS011;56451;44.804;20.476;2023-06-14T09:21:56;3.78;;;2.80;;
68866;SDS011;56451;44.804;20.476;2023-06-14T09:24:25;3.47;;;2.67;;
68866;SDS011;56451;44.804;20.476;2023-06-14T09:26:51;3.67;;;2.70;;
68866;SDS011;56451;44.804;20.476;2023-06-14T09:29:17;4.20;;;3.00;;
68866;SDS011;56451;44.804;20.476;2023-06-14T09:31:46;4.97;;;3.00;;
68866;SDS011;56451;44.804;20.476;2023-06-14T09:34:12;4.65;;;2.97;;
68866;SDS011;56451;44.804;20.476;2023-06-14T09:36:39;3.97;;;2.73;;
68866;SDS011;56451;44.804;20.476;2023-06-14T09:39:06;4.53;;;2.80;;
68866;SDS011;56451;44.804;20.476;2023-06-14T09:41:37;4.38;;;2.90;;
68866;SDS011;56451;44.804;20.476;2023-06-14T09:44:06;4.07;;;2.70;;
68866;SDS011;56451;44.804;20.476;2023-06-14T09:46:33;4.63;;;3.00;;
68866;SDS011;56451;44.804;20.476;2023-06-14T09:49:01;4.77;;;2.67;;
68866;SDS011;56451;44.804;20.476;2023-06-14T09:51:28;6.80;;;2.97;;
68866;SDS011;56451;44.804;20.476;2023-06-14T09:54:01;8.50;;;3.20;;
68866;SDS011;56451;44.804;20.476;2023-06-14T09:56:35;4.57;;;2.50;;
68866;SDS011;56451;44.804;20.476;2023-06-14T09:59:12;4.63;;;3.17;;
68866;SDS011;56451;44.804;20.476;2023-06-14T10:01:41;5.47;;;2.50;;
68866;SDS011;56451;44.804;20.476;2023-06-14T10:04:09;4.25;;;2.78;;
68866;SDS011;56451;44.804;20.476;2023-06-14T10:06:36;5.80;;;2.78;;
68866;SDS011;56451;44.804;20.476;2023-06-14T10:09:04;4.15;;;2.72;;
68866;SDS011;56451;44.804;20.476;2023-06-14T10:11:33;7.32;;;3.00;;
68866;SDS011;56451;44.804;20.476;2023-06-14T10:14:01;6.20;;;3.80;;
68866;SDS011;56451;44.804;20.476;2023-06-14T10:16:52;8.05;;;2.75;;
68866;SDS011;56451;44.804;20.476;2023-06-14T10:19:45;4.78;;;2.97;;
68866;SDS011;56451;44.804;20.476;2023-06-14T10:22:18;7.43;;;3.30;;
68866;SDS011;56451;44.804;20.476;2023-06-14T10:24:50;7.70;;;3.45;;
68866;SDS011;56451;44.804;20.476;2023-06-14T10:27:16;7.43;;;3.47;;
68866;SDS011;56451;44.804;20.476;2023-06-14T10:32:24;5.05;;;2.83;;
68866;SDS011;56451;44.804;20.476;2023-06-14T10:34:54;7.13;;;3.17;;
68866;SDS011;56451;44.804;20.476;2023-06-14T10:37:21;49.58;;;6.68;;
68866;SDS011;56451;44.804;20.476;2023-06-14T10:39:47;5.57;;;2.83;;
68866;SDS011;56451;44.804;20.476;2023-06-14T10:42:14;7.15;;;3.10;;
68866;SDS011;56451;44.804;20.476;2023-06-14T10:44:41;5.72;;;2.97;;
68866;SDS011;56451;44.804;20.476;2023-06-14T10:49:55;4.50;;;2.97;;
68866;SDS011;56451;44.804;20.476;2023-06-14T10:52:27;7.70;;;3.23;;
68866;SDS011;56451;44.804;20.476;2023-06-14T10:57:58;5.70;;;3.10;;
68866;SDS011;56451;44.804;20.476;2023-06-14T11:00:25;7.25;;;2.90;;
68866;SDS011;56451;44.804;20.476;2023-06-14T11:03:02;10.70;;;2.85;;
68866;SDS011;56451;44.804;20.476;2023-06-14T11:05:49;5.53;;;3.03;;
68866;SDS011;56451;44.804;20.476;2023-06-14T11:10:54;5.53;;;2.55;;
68866;SDS011;56451;44.804;20.476;2023-06-14T11:13:24;9.32;;;2.85;;
68866;SDS011;56451;44.804;20.476;2023-06-14T11:15:51;7.18;;;3.00;;
68866;SDS011;56451;44.804;20.476;2023-06-14T11:18:19;8.57;;;3.33;;
68866;SDS011;56451;44.804;20.476;2023-06-14T11:20:50;6.43;;;2.95;;
68866;SDS011;56451;44.804;20.476;2023-06-14T11:23:16;5.53;;;2.83;;
68866;SDS011;56451;44.804;20.476;2023-06-14T11:25:42;4.30;;;2.70;;
68866;SDS011;56451;44.804;20.476;2023-06-14T11:28:08;5.40;;;2.90;;
68866;SDS011;56451;44.804;20.476;2023-06-14T11:30:34;5.87;;;3.10;;
68866;SDS011;56451;44.804;20.476;2023-06-14T11:33:00;4.78;;;3.35;;
68866;SDS011;56451;44.804;20.476;2023-06-14T11:35:26;4.38;;;3.28;;
68866;SDS011;56451;44.804;20.476;2023-06-14T11:37:54;6.32;;;3.10;;
68866;SDS011;56451;44.804;20.476;2023-06-14T11:40:25;4.33;;;2.90;;
68866;SDS011;56451;44.804;20.476;2023-06-14T11:42:59;4.07;;;2.78;;
68866;SDS011;56451;44.804;20.476;2023-06-14T11:45:27;5.63;;;3.10;;
68866;SDS011;56451;44.804;20.476;2023-06-14T11:47:55;6.88;;;3.15;;
68866;SDS011;56451;44.804;20.476;2023-06-14T11:50:24;3.30;;;2.72;;
68866;SDS011;56451;44.804;20.476;2023-06-14T11:52:55;4.60;;;2.87;;
68866;SDS011;56451;44.804;20.476;2023-06-14T11:55:22;4.20;;;3.00;;
68866;SDS011;56451;44.804;20.476;2023-06-14T11:57:49;6.60;;;3.05;;
68866;SDS011;56451;44.804;20.476;2023-06-14T12:00:16;7.57;;;3.53;;
68866;SDS011;56451;44.804;20.476;2023-06-14T12:02:43;5.38;;;3.30;;
68866;SDS011;56451;44.804;20.476;2023-06-14T12:05:20;5.60;;;2.63;;
68866;SDS011;56451;44.804;20.476;2023-06-14T12:07:46;7.03;;;3.28;;
68866;SDS011;56451;44.804;20.476;2023-06-14T12:10:14;5.90;;;3.20;;
68866;SDS011;56451;44.804;20.476;2023-06-14T12:12:41;4.32;;;2.88;;
68866;SDS011;56451;44.804;20.476;2023-06-14T12:15:08;3.67;;;2.87;;
68866;SDS011;56451;44.804;20.476;2023-06-14T12:17:36;5.70;;;2.72;;
68866;SDS011;56451;44.804;20.476;2023-06-14T12:20:08;6.90;;;3.00;;
68866;SDS011;56451;44.804;20.476;2023-06-14T12:22:53;7.22;;;2.92;;
68866;SDS011;56451;44.804;20.476;2023-06-14T12:25:32;7.32;;;2.88;;
68866;SDS011;56451;44.804;20.476;2023-06-14T12:28:06;10.17;;;3.10;;
68866;SDS011;56451;44.804;20.476;2023-06-14T12:30:34;7.05;;;3.15;;
68866;SDS011;56451;44.804;20.476;2023-06-14T12:33:02;5.05;;;2.92;;
68866;SDS011;56451;44.804;20.476;2023-06-14T12:35:28;5.43;;;3.03;;
68866;SDS011;56451;44.804;20.476;2023-06-14T12:37:54;7.60;;;3.47;;
68866;SDS011;56451;44.804;20.476;2023-06-14T12:40:21;6.50;;;3.20;;
68866;SDS011;56451;44.804;20.476;2023-06-14T12:42:48;4.90;;;2.80;;
68866;SDS011;56451;44.804;20.476;2023-06-14T12:45:14;5.68;;;3.10;;
68866;SDS011;56451;44.804;20.476;2023-06-14T12:47:40;4.40;;;3.28;;
68866;SDS011;56451;44.804;20.476;2023-06-14T12:50:06;3.60;;;2.88;;
68866;SDS011;56451;44.804;20.476;2023-06-14T12:52:33;4.27;;;3.20;;
68866;SDS011;56451;44.804;20.476;2023-06-14T12:55:03;5.38;;;2.80;;
68866;SDS011;56451;44.804;20.476;2023-06-14T12:57:29;7.18;;;3.05;;
68866;SDS011;56451;44.804;20.476;2023-06-14T12:59:55;5.03;;;3.05;;
68866;SDS011;56451;44.804;20.476;2023-06-14T13:02:21;5.77;;;3.20;;
68866;SDS011;56451;44.804;20.476;2023-06-14T13:04:49;4.60;;;3.00;;
68866;SDS011;56451;44.804;20.476;2023-06-14T13:07:15;4.45;;;2.95;;
68866;SDS011;56451;44.804;20.476;2023-06-14T13:09:42;5.30;;;3.00;;
68866;SDS011;56451;44.804;20.476;2023-06-14T13:12:09;6.93;;;3.42;;
68866;SDS011;56451;44.804;20.476;2023-06-14T13:14:39;5.43;;;3.10;;
68866;SDS011;56451;44.804;20.476;2023-06-14T13:17:07;4.65;;;3.22;;
68866;SDS011;56451;44.804;20.476;2023-06-14T13:19:34;6.25;;;2.92;;
68866;SDS011;56451;44.804;20.476;2023-06-14T13:22:00;3.58;;;3.03;;
68866;SDS011;56451;44.804;20.476;2023-06-14T13:24:26;4.10;;;2.47;;
68866;SDS011;56451;44.804;20.476;2023-06-14T13:26:53;6.17;;;3.10;;
68866;SDS011;56451;44.804;20.476;2023-06-14T13:29:20;4.70;;;3.03;;
68866;SDS011;56451;44.804;20.476;2023-06-14T13:31:46;5.43;;;3.33;;
68866;SDS011;56451;44.804;20.476;2023-06-14T13:34:12;5.60;;;3.08;;
68866;SDS011;56451;44.804;20.476;2023-06-14T13:36:38;5.10;;;3.30;;
68866;SDS011;56451;44.804;20.476;2023-06-14T13:39:04;8.50;;;3.77;;
68866;SDS011;56451;44.804;20.476;2023-06-14T13:41:30;4.75;;;3.40;;
68866;SDS011;56451;44.804;20.476;2023-06-14T13:43:59;6.60;;;3.15;;
68866;SDS011;56451;44.804;20.476;2023-06-14T13:46:26;5.63;;;3.05;;
68866;SDS011;56451;44.804;20.476;2023-06-14T13:48:52;5.60;;;2.93;;
68866;SDS011;56451;44.804;20.476;2023-06-14T13:51:18;6.88;;;3.17;;
68866;SDS011;56451;44.804;20.476;2023-06-14T13:53:47;6.68;;;2.80;;
68866;SDS011;56451;44.804;20.476;2023-06-14T13:56:14;5.28;;;3.20;;
68866;SDS011;56451;44.804;20.476;2023-06-14T13:58:41;3.83;;;3.30;;
68866;SDS011;56451;44.804;20.476;2023-06-14T14:01:07;5.47;;;3.20;;
68866;SDS011;56451;44.804;20.476;2023-06-14T14:03:33;5.28;;;3.47;;
68866;SDS011;56451;44.804;20.476;2023-06-14T14:06:03;7.40;;;3.33;;
68866;SDS011;56451;44.804;20.476;2023-06-14T14:08:30;4.40;;;3.25;;
68866;SDS011;56451;44.804;20.476;2023-06-14T14:10:56;6.27;;;3.10;;
68866;SDS011;56451;44.804;20.476;2023-06-14T14:13:22;4.95;;;3.22;;
68866;SDS011;56451;44.804;20.476;2023-06-14T14:15:48;4.13;;;3.50;;
68866;SDS011;56451;44.804;20.476;2023-06-14T14:18:18;3.70;;;3.30;;
68866;SDS011;56451;44.804;20.476;2023-06-14T14:20:46;6.13;;;4.03;;
68866;SDS011;56451;44.804;20.476;2023-06-14T14:23:13;4.80;;;3.40;;
68866;SDS011;56451;44.804;20.476;2023-06-14T14:25:40;5.15;;;3.55;;
68866;SDS011;56451;44.804;20.476;2023-06-14T14:28:06;5.43;;;3.78;;
68866;SDS011;56451;44.804;20.476;2023-06-14T14:30:32;4.65;;;3.25;;
68866;SDS011;56451;44.804;20.476;2023-06-14T14:32:59;4.95;;;3.35;;
68866;SDS011;56451;44.804;20.476;2023-06-14T14:35:24;4.20;;;3.63;;
68866;SDS011;56451;44.804;20.476;2023-06-14T14:37:56;8.88;;;4.22;;
68866;SDS011;56451;44.804;20.476;2023-06-14T14:40:24;7.40;;;3.90;;
68866;SDS011;56451;44.804;20.476;2023-06-14T14:42:50;6.25;;;4.22;;
68866;SDS011;56451;44.804;20.476;2023-06-14T14:45:16;6.73;;;3.50;;
68866;SDS011;56451;44.804;20.476;2023-06-14T14:47:42;6.22;;;3.50;;
68866;SDS011;56451;44.804;20.476;2023-06-14T14:50:08;6.50;;;4.47;;
68866;SDS011;56451;44.804;20.476;2023-06-14T14:52:34;7.97;;;3.90;;
68866;SDS011;56451;44.804;20.476;2023-06-14T14:55:00;5.30;;;3.90;;